Time;durP1;ratioP1;P1;durP2;ratioP2;P2;SDS_P1;SDS_P2;PMS_P1;PMS_P2;Temp;Humidity;BMP_temperature;BMP_pressure;BME280_temperature;BME280_humidity;BME280_pressure;Samples;Min_cycle;Max_cycle;Signal;HPM_P1;HPM_P2
2024/01/19 00:02:14;;;;;;;8.10;7.30;;;-4.70;99.90;;;;;;5017852;28;20476;-51
2024/01/19 00:04:41;;;;;;;9.10;7.60;;;-4.60;99.90;;;;;;5017297;28;20468;-50
2024/01/19 00:07:09;;;;;;;8.87;7.03;;;-4.60;99.90;;;;;;5022838;28;20435;-50
2024/01/19 00:09:35;;;;;;;10.13;7.57;;;-4.60;99.90;;;;;;5019337;28;20514;-51
2024/01/19 00:12:02;;;;;;;8.40;7.60;;;-4.50;99.90;;;;;;5022047;28;20923;-50
2024/01/19 00:14:29;;;;;;;12.07;8.93;;;-4.50;99.90;;;;;;5016456;28;21030;-51
2024/01/19 00:16:55;;;;;;;13.40;8.90;;;-4.40;96.70;;;;;;5025628;28;20478;-50
2024/01/19 00:19:22;;;;;;;8.50;7.63;;;-4.30;96.50;;;;;;5025554;28;20880;-51
2024/01/19 00:21:49;;;;;;;13.57;8.67;;;-4.20;93.40;;;;;;5017600;28;20459;-50
2024/01/19 00:24:17;;;;;;;10.00;7.57;;;-4.20;95.60;;;;;;5019191;28;20535;-51
2024/01/19 00:26:47;;;;;;;18.67;10.20;;;-4.20;97.20;;;;;;5023452;28;20508;-50
2024/01/19 00:29:13;;;;;;;17.00;9.23;;;-4.10;94.40;;;;;;5016746;28;21131;-55
2024/01/19 00:31:43;;;;;;;10.13;8.90;;;-4.10;95.90;;;;;;5020355;28;21012;-50
2024/01/19 00:34:09;;;;;;;26.80;11.60;;;-4.10;97.90;;;;;;5020321;28;20471;-50
2024/01/19 00:36:36;;;;;;;8.23;6.90;;;-4.10;99.40;;;;;;5020343;28;21011;-50
2024/01/19 00:39:03;;;;;;;14.87;10.60;;;-4.10;97.50;;;;;;5013576;28;20545;-51
2024/01/19 00:41:31;;;;;;;17.83;8.37;;;-4.10;98.60;;;;;;5017749;28;20443;-50
2024/01/19 00:43:58;;;;;;;18.33;9.60;;;-4.20;99.90;;;;;;5015425;28;20491;-51
2024/01/19 00:46:25;;;;;;;7.47;6.77;;;-4.20;99.90;;;;;;5025766;28;20858;-50
2024/01/19 00:48:51;;;;;;;8.37;6.47;;;-4.20;99.90;;;;;;5013183;28;20534;-51
2024/01/19 00:51:18;;;;;;;10.63;7.23;;;-4.10;97.10;;;;;;5019348;28;20526;-51
2024/01/19 00:53:45;;;;;;;10.07;7.30;;;-4.00;95.30;;;;;;5019583;28;20444;-52
2024/01/19 00:56:12;;;;;;;6.53;5.80;;;-4.00;97.20;;;;;;5014686;28;20479;-51
2024/01/19 00:58:43;;;;;;;11.80;6.50;;;-3.90;98.30;;;;;;5020304;28;20884;-51
2024/01/19 01:01:10;;;;;;;7.77;6.60;;;-3.90;99.90;;;;;;5021159;28;20529;-51
2024/01/19 01:03:36;;;;;;;8.13;6.07;;;-3.90;99.90;;;;;;5022911;28;20451;-51
2024/01/19 01:06:04;;;;;;;8.20;6.20;;;-3.90;99.90;;;;;;5016387;28;20510;-50
2024/01/19 01:08:30;;;;;;;8.03;6.23;;;-3.90;99.90;;;;;;5020298;28;20848;-50
2024/01/19 01:10:57;;;;;;;8.80;6.00;;;-4.00;99.90;;;;;;5014185;28;20530;-51
2024/01/19 01:13:24;;;;;;;10.73;6.50;;;-4.10;99.90;;;;;;5017017;28;20483;-51
2024/01/19 01:15:51;;;;;;;8.03;6.87;;;-4.20;99.90;;;;;;5012157;28;20444;-51
2024/01/19 01:18:19;;;;;;;7.80;6.70;;;-4.30;99.90;;;;;;5017694;28;21013;-51
2024/01/19 01:20:46;;;;;;;7.17;6.23;;;-4.30;99.90;;;;;;5022973;28;20978;-51
2024/01/19 01:23:13;;;;;;;9.70;7.47;;;-4.40;99.90;;;;;;5014582;28;20506;-50
2024/01/19 01:25:39;;;;;;;7.93;6.73;;;-4.50;99.90;;;;;;5014778;28;20498;-51
2024/01/19 01:28:06;;;;;;;6.70;6.10;;;-4.50;99.90;;;;;;5022613;28;20501;-51
2024/01/19 01:30:32;;;;;;;10.03;6.43;;;-4.60;99.90;;;;;;5018427;28;20451;-51
2024/01/19 01:33:01;;;;;;;9.07;7.30;;;-4.70;99.90;;;;;;5021252;28;20446;-51
2024/01/19 01:35:27;;;;;;;7.23;6.03;;;-4.80;99.90;;;;;;5022159;28;20527;-51
2024/01/19 01:37:54;;;;;;;7.60;5.90;;;-4.80;99.90;;;;;;5016553;28;20515;-50
2024/01/19 01:40:20;;;;;;;7.50;6.83;;;-4.80;99.90;;;;;;5018817;28;20541;-51
2024/01/19 01:42:47;;;;;;;9.70;6.97;;;-4.90;99.90;;;;;;5012416;28;20498;-56
2024/01/19 01:45:14;;;;;;;8.70;6.67;;;-4.90;99.90;;;;;;5029775;28;21062;-54
2024/01/19 01:47:41;;;;;;;10.03;6.63;;;-4.90;99.90;;;;;;5024281;28;20439;-52
2024/01/19 01:50:09;;;;;;;7.23;6.50;;;-4.90;99.90;;;;;;5028796;28;20464;-53
2024/01/19 01:52:36;;;;;;;7.67;6.20;;;-4.90;99.90;;;;;;5034036;28;20468;-51
2024/01/19 01:55:03;;;;;;;8.40;6.40;;;-4.80;99.90;;;;;;5021691;28;20451;-51
2024/01/19 01:57:30;;;;;;;6.60;6.00;;;-4.90;99.90;;;;;;5015882;28;20479;-50
2024/01/19 01:59:56;;;;;;;12.83;7.20;;;-4.90;99.90;;;;;;5017948;28;20495;-52
2024/01/19 02:02:23;;;;;;;15.13;6.77;;;-4.80;99.90;;;;;;5017342;28;20474;-52
2024/01/19 02:04:50;;;;;;;7.03;6.10;;;-4.70;99.90;;;;;;5013342;28;20459;-52
2024/01/19 02:07:18;;;;;;;7.40;5.60;;;-4.70;99.90;;;;;;5016631;28;20443;-52
2024/01/19 02:09:45;;;;;;;6.93;5.73;;;-4.60;99.90;;;;;;5018716;28;20542;-53
2024/01/19 02:12:12;;;;;;;9.50;6.77;;;-4.50;99.90;;;;;;5024607;28;20447;-51
2024/01/19 02:14:38;;;;;;;6.87;5.47;;;-4.50;99.90;;;;;;5023263;28;20490;-51
2024/01/19 02:17:05;;;;;;;6.63;5.93;;;-4.40;99.90;;;;;;5026118;28;20517;-51
2024/01/19 02:19:35;;;;;;;10.27;6.30;;;-4.40;99.90;;;;;;5031129;28;20515;-51
2024/01/19 02:22:02;;;;;;;11.37;6.50;;;-4.30;99.90;;;;;;5029518;28;20470;-52
2024/01/19 02:24:30;;;;;;;7.17;6.13;;;-4.30;99.90;;;;;;5027246;28;20550;-51
2024/01/19 02:26:57;;;;;;;5.30;4.90;;;-4.20;99.90;;;;;;5019638;28;20487;-51
2024/01/19 02:29:24;;;;;;;6.43;5.47;;;-4.30;99.90;;;;;;5020144;28;20562;-50
2024/01/19 02:31:50;;;;;;;10.37;6.73;;;-4.20;99.90;;;;;;5010082;28;20479;-50
2024/01/19 02:34:17;;;;;;;11.90;5.80;;;-4.20;99.90;;;;;;5015319;28;20547;-52
2024/01/19 02:36:43;;;;;;;8.40;6.47;;;-4.10;99.90;;;;;;5020884;28;20478;-52
2024/01/19 02:39:10;;;;;;;8.13;6.60;;;-4.20;99.90;;;;;;5020067;28;20474;-51
2024/01/19 02:41:38;;;;;;;7.97;6.07;;;-4.10;99.90;;;;;;5023546;28;20914;-50
2024/01/19 02:44:05;;;;;;;9.50;7.00;;;-4.10;99.90;;;;;;5024745;28;20443;-51
2024/01/19 02:46:31;;;;;;;7.90;7.10;;;-4.10;99.90;;;;;;5012177;28;20444;-51
2024/01/19 02:48:58;;;;;;;8.30;6.70;;;-4.10;99.90;;;;;;5009213;28;21039;-52
2024/01/19 02:51:24;;;;;;;6.60;5.97;;;-4.20;99.90;;;;;;5012786;28;20468;-51
2024/01/19 02:53:51;;;;;;;6.73;5.77;;;-4.20;99.90;;;;;;5015031;28;20456;-51
2024/01/19 02:56:17;;;;;;;7.70;5.93;;;-4.20;99.90;;;;;;5013085;28;20490;-52
2024/01/19 03:01:18;;;;;;;10.97;7.50;;;-4.20;99.90;;;;;;4987143;28;20586;-58
2024/01/19 03:03:44;;;;;;;9.67;7.27;;;-4.20;99.90;;;;;;4991776;28;20937;-57
2024/01/19 03:06:11;;;;;;;10.30;6.87;;;-4.30;99.90;;;;;;4989566;28;21431;-58
2024/01/19 03:08:38;;;;;;;9.97;7.23;;;-4.30;99.90;;;;;;4993006;28;20492;-58
2024/01/19 03:11:04;;;;;;;13.83;7.50;;;-4.30;99.90;;;;;;4998400;28;20508;-58
2024/01/19 03:13:31;;;;;;;8.57;7.13;;;-4.20;99.90;;;;;;4999039;28;20495;-58
2024/01/19 03:15:58;;;;;;;18.17;8.13;;;-4.30;99.90;;;;;;4992264;28;21045;-57
2024/01/19 03:18:25;;;;;;;7.93;6.80;;;-4.20;99.90;;;;;;4989167;28;20542;-58
2024/01/19 03:20:52;;;;;;;12.57;8.20;;;-4.30;99.90;;;;;;4987230;28;20495;-58
2024/01/19 03:23:18;;;;;;;10.90;7.10;;;-4.20;99.90;;;;;;4991344;28;20456;-58
2024/01/19 03:25:45;;;;;;;9.33;6.97;;;-4.20;99.90;;;;;;4998804;28;20525;-58
2024/01/19 03:28:12;;;;;;;11.70;7.43;;;-4.30;99.90;;;;;;4991756;28;20527;-59
2024/01/19 03:30:38;;;;;;;7.70;6.90;;;-4.30;99.90;;;;;;4991424;28;20488;-58
2024/01/19 03:33:05;;;;;;;9.23;7.40;;;-4.30;99.90;;;;;;4996804;28;20540;-58
2024/01/19 03:35:33;;;;;;;8.63;6.20;;;-4.20;99.90;;;;;;4991653;28;20463;-58
2024/01/19 03:38:00;;;;;;;8.00;6.83;;;-4.20;99.90;;;;;;4994000;28;20571;-58
2024/01/19 03:40:27;;;;;;;9.57;6.67;;;-4.10;99.90;;;;;;4993320;28;20488;-59
2024/01/19 03:42:54;;;;;;;7.40;5.77;;;-3.90;99.90;;;;;;4987791;28;20464;-58
2024/01/19 03:45:20;;;;;;;6.90;6.20;;;-3.80;99.90;;;;;;4990696;28;20997;-58
2024/01/19 03:47:47;;;;;;;6.70;5.70;;;-3.70;99.90;;;;;;5001065;28;20499;-57
2024/01/19 03:50:13;;;;;;;8.87;6.43;;;-3.60;99.90;;;;;;4995967;28;20512;-58
2024/01/19 03:52:41;;;;;;;8.60;6.10;;;-3.60;99.90;;;;;;4993299;28;20499;-57
2024/01/19 03:55:08;;;;;;;10.53;5.80;;;-3.50;99.90;;;;;;4991704;28;20500;-58
2024/01/19 03:57:35;;;;;;;8.80;6.87;;;-3.50;99.90;;;;;;4991997;28;20515;-58
2024/01/19 04:00:01;;;;;;;6.70;4.50;;;-3.50;99.90;;;;;;4987511;28;20567;-57
2024/01/19 04:02:28;;;;;;;8.07;4.83;;;-3.50;99.90;;;;;;4991740;28;20929;-57
2024/01/19 04:04:54;;;;;;;7.30;5.17;;;-3.50;99.90;;;;;;4991838;28;21020;-58
2024/01/19 04:07:21;;;;;;;6.80;5.40;;;-3.50;99.90;;;;;;4991916;28;20453;-58
2024/01/19 04:09:49;;;;;;;7.63;5.57;;;-3.50;99.90;;;;;;4986217;28;21053;-57
2024/01/19 04:12:18;;;;;;;7.80;5.00;;;-3.50;99.90;;;;;;4992883;28;20463;-57
2024/01/19 04:14:45;;;;;;;8.53;4.90;;;-3.50;99.90;;;;;;4995862;28;20483;-59
2024/01/19 04:17:13;;;;;;;9.00;5.00;;;-3.50;99.90;;;;;;4987972;28;20492;-59
2024/01/19 04:19:41;;;;;;;9.50;5.13;;;-3.50;99.90;;;;;;4987419;28;20480;-58
2024/01/19 04:22:07;;;;;;;4.80;4.40;;;-3.60;99.90;;;;;;4996178;28;20531;-59
2024/01/19 04:24:34;;;;;;;8.80;4.30;;;-3.40;99.90;;;;;;4991321;28;20578;-59
2024/01/19 04:27:02;;;;;;;6.27;4.37;;;-3.40;99.90;;;;;;4990590;28;20457;-58
2024/01/19 04:29:28;;;;;;;4.13;3.57;;;-3.40;99.90;;;;;;4999308;28;21102;-59
2024/01/19 04:31:56;;;;;;;6.23;4.03;;;-3.40;99.90;;;;;;4990065;28;20467;-58
2024/01/19 04:34:22;;;;;;;4.70;4.00;;;-3.40;99.90;;;;;;4992217;28;20495;-58
2024/01/19 04:36:49;;;;;;;6.90;4.20;;;-3.30;99.90;;;;;;4989541;28;20500;-57
2024/01/19 04:39:16;;;;;;;4.73;3.83;;;-3.30;99.90;;;;;;4991774;28;20527;-58
2024/01/19 04:41:43;;;;;;;5.40;3.50;;;-3.30;99.90;;;;;;4995226;28;20457;-58
2024/01/19 04:44:11;;;;;;;7.20;3.87;;;-3.30;99.90;;;;;;4988388;28;20487;-58
2024/01/19 04:46:38;;;;;;;4.33;3.87;;;-3.30;99.90;;;;;;4988237;28;20479;-58
2024/01/19 04:49:03;;;;;;;9.07;4.17;;;-3.10;99.90;;;;;;5000655;28;20523;-58
2024/01/19 04:51:30;;;;;;;7.43;4.33;;;-3.10;99.90;;;;;;4987673;28;20473;-58
2024/01/19 04:53:58;;;;;;;8.37;4.17;;;-3.10;99.90;;;;;;4987635;28;20678;-58
2024/01/19 04:56:25;;;;;;;5.23;4.77;;;-3.10;99.90;;;;;;4991816;28;20568;-58
2024/01/19 04:58:51;;;;;;;7.87;3.97;;;-3.00;99.90;;;;;;4984549;28;21107;-59
2024/01/19 05:01:19;;;;;;;5.63;4.23;;;-2.90;99.90;;;;;;4988757;28;20492;-59
2024/01/19 05:03:46;;;;;;;5.30;4.10;;;-2.90;99.90;;;;;;4986191;28;20899;-58
2024/01/19 05:06:13;;;;;;;10.70;4.33;;;-2.90;99.90;;;;;;4989809;28;21052;-58
2024/01/19 05:08:40;;;;;;;6.60;4.23;;;-2.90;99.90;;;;;;4989895;28;20491;-58
2024/01/19 05:11:06;;;;;;;9.27;4.37;;;-2.90;99.90;;;;;;4993745;28;20460;-58
2024/01/19 05:13:33;;;;;;;4.70;4.30;;;-2.80;99.90;;;;;;4990165;28;20769;-59
2024/01/19 05:15:59;;;;;;;4.00;3.70;;;-2.80;99.90;;;;;;4988840;28;20522;-58
2024/01/19 05:18:27;;;;;;;6.80;3.60;;;-2.80;99.90;;;;;;4982077;28;20507;-57
2024/01/19 05:20:54;;;;;;;7.83;4.03;;;-2.80;99.90;;;;;;4989415;28;20512;-57
2024/01/19 05:23:21;;;;;;;6.03;3.43;;;-2.90;99.90;;;;;;4989282;28;20503;-58
2024/01/19 05:25:47;;;;;;;5.87;3.07;;;-2.80;99.90;;;;;;4995755;28;20466;-58
2024/01/19 05:28:14;;;;;;;5.20;3.63;;;-2.80;99.90;;;;;;4991799;28;20452;-58
2024/01/19 05:30:41;;;;;;;3.90;2.97;;;-2.80;99.90;;;;;;4992787;28;20523;-58
2024/01/19 05:33:08;;;;;;;6.23;3.67;;;-2.70;99.90;;;;;;4992175;28;20459;-58
2024/01/19 05:35:36;;;;;;;5.47;3.53;;;-2.70;99.90;;;;;;4990622;28;20471;-58
2024/01/19 05:38:02;;;;;;;5.43;3.63;;;-2.70;99.90;;;;;;4997300;28;21306;-58
2024/01/19 05:40:29;;;;;;;8.00;3.67;;;-2.60;99.90;;;;;;4991295;28;20464;-59
2024/01/19 05:42:56;;;;;;;3.50;3.13;;;-2.60;99.90;;;;;;4989710;28;20510;-58
2024/01/19 05:45:22;;;;;;;6.40;4.23;;;-2.50;99.90;;;;;;4991414;28;20511;-58
2024/01/19 05:47:49;;;;;;;4.63;2.83;;;-2.60;99.90;;;;;;4991536;28;20857;-58
2024/01/19 05:50:15;;;;;;;4.30;3.40;;;-2.50;99.90;;;;;;4988939;28;20861;-59
2024/01/19 05:52:45;;;;;;;6.37;3.50;;;-2.40;99.90;;;;;;4989574;28;20960;-58
2024/01/19 05:55:11;;;;;;;5.47;2.67;;;-2.40;99.90;;;;;;4991202;28;20447;-59
2024/01/19 05:57:38;;;;;;;7.40;3.47;;;-2.40;99.90;;;;;;4996290;28;20476;-58
2024/01/19 06:00:06;;;;;;;4.63;3.23;;;-2.50;99.90;;;;;;4994674;28;20480;-58
2024/01/19 06:02:32;;;;;;;6.70;3.60;;;-2.40;99.90;;;;;;5000069;28;20449;-58
2024/01/19 06:04:59;;;;;;;7.90;3.10;;;-2.40;99.90;;;;;;4990370;28;20466;-57
2024/01/19 06:07:25;;;;;;;6.27;2.70;;;-2.40;99.90;;;;;;4996180;28;20485;-58
2024/01/19 06:09:53;;;;;;;4.50;2.83;;;-2.30;99.90;;;;;;4981401;28;20480;-58
2024/01/19 06:12:20;;;;;;;4.80;3.33;;;-2.30;99.90;;;;;;4997928;28;20473;-58
2024/01/19 06:14:46;;;;;;;5.73;2.93;;;-2.20;99.90;;;;;;4996589;28;20957;-58
2024/01/19 06:17:15;;;;;;;6.50;3.27;;;-2.20;99.90;;;;;;4992589;28;20883;-58
2024/01/19 06:19:42;;;;;;;7.03;3.60;;;-2.20;99.90;;;;;;4987285;28;20614;-57
2024/01/19 06:22:08;;;;;;;8.63;3.70;;;-2.20;99.90;;;;;;4987750;28;20479;-58
2024/01/19 06:24:36;;;;;;;4.80;3.43;;;-2.20;99.90;;;;;;4997274;28;20452;-58
2024/01/19 06:27:05;;;;;;;4.07;2.70;;;-2.20;99.90;;;;;;4988752;28;20544;-58
2024/01/19 06:29:31;;;;;;;4.73;3.40;;;-2.20;99.90;;;;;;4984971;28;20500;-59
2024/01/19 06:31:58;;;;;;;3.23;2.50;;;-2.20;99.90;;;;;;4987596;28;20476;-58
2024/01/19 06:34:25;;;;;;;4.80;3.27;;;-2.20;99.90;;;;;;4992697;28;20462;-57
2024/01/19 06:36:52;;;;;;;5.63;4.13;;;-2.30;99.90;;;;;;4990745;28;20472;-57
2024/01/19 06:39:18;;;;;;;8.13;3.20;;;-2.20;99.90;;;;;;4989494;28;20499;-58
2024/01/19 06:41:45;;;;;;;2.90;2.50;;;-2.10;99.90;;;;;;4998918;28;20862;-58
2024/01/19 06:44:14;;;;;;;5.90;2.80;;;-2.20;99.90;;;;;;4993304;28;20456;-59
2024/01/19 06:46:44;;;;;;;3.00;2.70;;;-2.10;99.90;;;;;;4991737;28;20496;-58
2024/01/19 06:49:11;;;;;;;3.20;2.93;;;-2.10;99.90;;;;;;4992389;28;20492;-58
2024/01/19 06:51:37;;;;;;;6.03;3.17;;;-2.10;99.90;;;;;;4992594;28;20869;-58
2024/01/19 06:54:04;;;;;;;7.10;3.70;;;-2.10;99.90;;;;;;5001936;28;20441;-57
2024/01/19 06:56:30;;;;;;;7.70;3.50;;;-2.10;99.90;;;;;;4980823;28;20505;-59
2024/01/19 06:58:57;;;;;;;7.07;3.30;;;-2.20;99.90;;;;;;5000836;28;20919;-59
2024/01/19 07:01:25;;;;;;;4.03;3.03;;;-2.10;99.90;;;;;;4994006;28;20471;-59
2024/01/19 07:03:52;;;;;;;3.57;3.10;;;-2.10;99.90;;;;;;5001447;28;20464;-58
2024/01/19 07:06:18;;;;;;;12.17;3.03;;;-2.10;99.90;;;;;;4995150;28;20954;-59
2024/01/19 07:08:45;;;;;;;4.40;2.87;;;-2.20;99.90;;;;;;4996919;28;20858;-59
2024/01/19 07:11:11;;;;;;;9.97;3.43;;;-2.20;99.90;;;;;;4989304;28;20844;-58
2024/01/19 07:13:38;;;;;;;4.30;3.10;;;-2.20;99.90;;;;;;4991379;28;20467;-59
2024/01/19 07:16:07;;;;;;;5.20;3.47;;;-2.20;99.90;;;;;;4999531;28;20467;-58
2024/01/19 07:18:35;;;;;;;6.47;3.60;;;-2.20;99.90;;;;;;4988512;28;20484;-59
2024/01/19 07:21:02;;;;;;;4.73;3.23;;;-2.10;99.90;;;;;;4991019;28;20931;-59
2024/01/19 07:23:28;;;;;;;4.50;3.20;;;-2.10;99.90;;;;;;4992799;28;20875;-59
2024/01/19 07:25:55;;;;;;;3.93;3.03;;;-2.10;99.90;;;;;;4993000;28;20511;-59
2024/01/19 07:28:22;;;;;;;3.43;3.13;;;-2.10;99.90;;;;;;5001677;28;20436;-59
2024/01/19 07:30:49;;;;;;;5.07;3.50;;;-2.10;99.90;;;;;;4994403;28;20468;-58
2024/01/19 07:33:15;;;;;;;4.80;3.57;;;-2.10;99.90;;;;;;5002363;28;20797;-58
2024/01/19 07:35:43;;;;;;;6.57;3.33;;;-2.00;99.90;;;;;;4991198;28;20463;-58
2024/01/19 07:38:10;;;;;;;5.53;3.63;;;-2.00;99.90;;;;;;4990436;28;20479;-58
2024/01/19 07:40:36;;;;;;;4.00;3.47;;;-2.00;99.90;;;;;;4994016;28;20519;-58
2024/01/19 07:43:03;;;;;;;5.33;3.80;;;-2.00;99.90;;;;;;4999661;28;20448;-58
2024/01/19 07:45:30;;;;;;;5.73;3.67;;;-2.00;99.90;;;;;;4993153;28;20494;-58
2024/01/19 07:47:56;;;;;;;7.27;3.50;;;-2.00;99.90;;;;;;4998031;28;20495;-58
2024/01/19 07:50:23;;;;;;;7.03;4.13;;;-1.90;97.80;;;;;;4992329;28;20570;-57
2024/01/19 07:52:51;;;;;;;3.93;3.47;;;-1.90;83.80;;;;;;5000779;28;20458;-57
2024/01/19 07:55:17;;;;;;;3.97;3.53;;;-1.90;85.20;;;;;;5001967;28;20919;-58
2024/01/19 07:57:44;;;;;;;4.90;3.90;;;-1.80;81.50;;;;;;4993832;28;20991;-58
2024/01/19 08:00:11;;;;;;;6.73;3.70;;;-1.80;20.50;;;;;;4999690;28;20499;-58
2024/01/19 08:02:38;;;;;;;5.37;3.80;;;-1.80;22.40;;;;;;4997018;28;20448;-58
2024/01/19 08:05:05;;;;;;;4.90;4.17;;;-1.70;25.70;;;;;;5001509;28;20875;-58
2024/01/19 08:07:31;;;;;;;10.80;3.77;;;-1.60;28.10;;;;;;4987996;28;20472;-58
2024/01/19 08:09:59;;;;;;;7.67;3.60;;;-1.70;29.00;;;;;;4995076;28;20512;-59
2024/01/19 08:12:26;;;;;;;5.20;4.40;;;-1.70;26.30;;;;;;4998199;28;20436;-58
2024/01/19 08:14:55;;;;;;;5.13;4.63;;;-1.70;27.10;;;;;;4989959;28;20467;-58
2024/01/19 08:17:21;;;;;;;6.40;4.47;;;-1.60;26.10;;;;;;4985114;28;20463;-58
2024/01/19 08:19:48;;;;;;;4.97;3.83;;;-1.60;29.00;;;;;;4987632;28;21005;-58
2024/01/19 08:22:14;;;;;;;6.50;5.17;;;-1.50;29.00;;;;;;4990848;28;20492;-59
2024/01/19 08:24:41;;;;;;;5.80;4.50;;;-1.50;32.40;;;;;;4984894;28;20503;-58
2024/01/19 08:27:09;;;;;;;8.83;4.20;;;-1.50;31.50;;;;;;4987138;28;20966;-58
2024/01/19 08:29:35;;;;;;;4.30;3.90;;;-1.50;31.20;;;;;;4994107;28;20827;-58
2024/01/19 08:32:02;;;;;;;8.40;4.17;;;-1.00;34.60;;;;;;4984002;28;20566;-58
2024/01/19 08:34:29;;;;;;;9.57;4.30;;;-0.60;62.90;;;;;;4989704;28;20548;-58
2024/01/19 08:36:55;;;;;;;7.73;3.90;;;-0.10;79.70;;;;;;4994793;28;20504;-58
2024/01/19 08:39:22;;;;;;;15.83;4.90;;;0.40;94.00;;;;;;4980791;28;20619;-58
2024/01/19 08:41:48;;;;;;;6.83;4.40;;;0.20;99.90;;;;;;4986018;28;20473;-57
2024/01/19 08:44:17;;;;;;;6.97;4.10;;;-0.20;88.90;;;;;;4980163;28;20546;-58
2024/01/19 08:46:44;;;;;;;4.40;4.03;;;0.10;88.20;;;;;;4983638;28;20464;-58
2024/01/19 08:49:11;;;;;;;7.23;4.40;;;0.30;99.90;;;;;;4982947;28;20924;-58
2024/01/19 08:51:38;;;;;;;8.30;4.90;;;0.30;96.00;;;;;;4984671;28;20475;-58
2024/01/19 08:54:05;;;;;;;8.97;5.00;;;0.10;94.10;;;;;;4988598;28;20527;-58
2024/01/19 08:56:31;;;;;;;10.13;5.00;;;0.30;90.30;;;;;;4992220;28;20465;-59
2024/01/19 08:58:58;;;;;;;4.77;4.30;;;0.70;99.90;;;;;;4987735;28;20481;-55
2024/01/19 09:01:27;;;;;;;5.20;4.10;;;0.70;99.90;;;;;;4984342;28;20492;-56
2024/01/19 09:03:53;;;;;;;6.40;4.80;;;0.80;99.90;;;;;;4985490;28;20495;-56
2024/01/19 09:06:20;;;;;;;7.77;4.70;;;0.50;99.90;;;;;;4986519;28;20468;-57
2024/01/19 09:08:47;;;;;;;8.13;4.60;;;0.50;98.30;;;;;;4987721;28;20492;-56
2024/01/19 09:11:13;;;;;;;5.23;4.50;;;0.40;93.00;;;;;;4988958;28;20507;-56
2024/01/19 09:13:40;;;;;;;4.73;3.80;;;0.50;94.70;;;;;;4989406;28;20510;-56
2024/01/19 09:16:07;;;;;;;9.90;4.90;;;0.60;96.20;;;;;;4990177;28;21049;-57
2024/01/19 09:18:36;;;;;;;8.23;5.17;;;0.60;95.00;;;;;;4985052;28;20480;-57
2024/01/19 09:21:02;;;;;;;6.70;4.63;;;0.40;92.00;;;;;;4983631;28;20831;-56
2024/01/19 09:23:29;;;;;;;5.40;4.73;;;0.40;85.20;;;;;;4986555;28;20520;-56
2024/01/19 09:25:55;;;;;;;5.53;4.43;;;0.30;79.40;;;;;;4989322;28;21036;-56
2024/01/19 09:28:22;;;;;;;7.90;4.53;;;0.40;79.80;;;;;;4990129;28;20477;-56
2024/01/19 09:30:49;;;;;;;8.40;5.10;;;0.30;79.20;;;;;;4984934;28;20566;-56
2024/01/19 09:33:16;;;;;;;5.10;4.70;;;0.30;76.20;;;;;;4990689;28;20539;-55
2024/01/19 09:35:44;;;;;;;4.80;4.30;;;0.30;71.60;;;;;;4985266;28;20495;-57
2024/01/19 09:38:10;;;;;;;4.87;4.37;;;0.20;66.10;;;;;;4987012;28;20461;-56
2024/01/19 09:40:39;;;;;;;6.03;4.27;;;0.30;62.20;;;;;;4982274;28;20520;-56
2024/01/19 09:43:07;;;;;;;9.83;5.30;;;0.30;67.30;;;;;;4984868;28;20960;-56
2024/01/19 09:45:40;;;;;;;7.93;5.00;;;0.60;72.80;;;;;;4984153;28;20938;-56
2024/01/19 09:48:18;;;;;;;4.73;4.27;;;1.00;88.80;;;;;;4979948;28;20465;-56
2024/01/19 09:50:49;;;;;;;6.83;4.70;;;1.60;99.90;;;;;;4984237;28;20511;-55
2024/01/19 09:53:21;;;;;;;8.30;4.53;;;1.60;99.90;;;;;;4988962;28;20890;-56
2024/01/19 09:55:48;;;;;;;7.90;4.80;;;1.50;99.90;;;;;;4983671;28;21009;-55
2024/01/19 09:58:16;;;;;;;7.63;6.93;;;1.90;99.90;;;;;;4988061;28;20539;-56
2024/01/19 10:00:43;;;;;;;7.50;4.80;;;2.50;99.90;;;;;;4984595;28;20511;-57
2024/01/19 10:03:12;;;;;;;6.67;4.40;;;3.10;99.90;;;;;;4983238;28;20466;-57
2024/01/19 10:05:38;;;;;;;7.53;4.13;;;3.60;99.90;;;;;;4984226;28;20466;-56
2024/01/19 10:08:08;;;;;;;6.83;4.17;;;4.00;99.90;;;;;;4988273;28;20520;-56
2024/01/19 10:10:35;;;;;;;6.30;4.50;;;4.20;99.90;;;;;;4984849;28;20536;-57
2024/01/19 10:13:02;;;;;;;6.53;4.20;;;3.80;99.90;;;;;;4989028;28;20473;-58
2024/01/19 10:15:28;;;;;;;6.23;4.70;;;4.20;99.90;;;;;;4985828;28;21033;-57
2024/01/19 10:17:55;;;;;;;27.27;14.97;;;4.70;99.90;;;;;;4989060;28;20457;-57
2024/01/19 10:20:22;;;;;;;5.77;5.20;;;4.20;99.90;;;;;;4986827;28;21049;-56
2024/01/19 10:22:49;;;;;;;5.90;4.10;;;3.60;99.90;;;;;;4986350;28;20510;-57
2024/01/19 10:25:16;;;;;;;5.70;4.13;;;3.00;99.90;;;;;;4987039;28;20464;-57
2024/01/19 10:27:48;;;;;;;5.70;4.10;;;2.60;99.90;;;;;;4984001;28;20489;-56
2024/01/19 10:30:17;;;;;;;4.60;4.20;;;2.40;99.90;;;;;;4988325;28;20480;-56
2024/01/19 10:32:45;;;;;;;5.43;4.30;;;2.90;99.90;;;;;;4991896;28;20515;-57
2024/01/19 10:35:13;;;;;;;5.93;3.87;;;3.00;99.90;;;;;;4984099;28;20461;-56
2024/01/19 10:37:40;;;;;;;5.63;4.80;;;2.70;99.90;;;;;;4990379;28;20955;-56
2024/01/19 10:40:21;;;;;;;8.50;5.10;;;3.10;99.90;;;;;;4987048;28;20580;-56
2024/01/19 10:42:49;;;;;;;4.90;4.40;;;3.10;99.90;;;;;;4989866;28;20484;-57
2024/01/19 10:45:18;;;;;;;10.20;6.07;;;2.90;99.90;;;;;;4984493;28;20457;-59
2024/01/19 10:47:45;;;;;;;8.07;6.07;;;3.00;99.90;;;;;;4984155;28;20958;-54
2024/01/19 10:50:14;;;;;;;9.10;5.10;;;2.80;99.90;;;;;;4997337;28;20453;-54
2024/01/19 10:52:42;;;;;;;6.07;3.87;;;3.20;99.90;;;;;;4993514;28;20448;-54
2024/01/19 10:55:10;;;;;;;4.20;3.17;;;3.40;99.90;;;;;;4989767;28;20492;-54
2024/01/19 10:57:38;;;;;;;5.27;3.93;;;3.20;99.90;;;;;;4984556;28;20487;-54
2024/01/19 11:00:21;;;;;;;3.97;3.50;;;2.90;99.90;;;;;;4989068;28;20547;-54
2024/01/19 11:02:49;;;;;;;3.73;3.43;;;3.20;99.90;;;;;;4983750;28;20899;-54
2024/01/19 11:05:18;;;;;;;4.23;3.77;;;3.40;99.90;;;;;;4984676;28;20820;-54
2024/01/19 11:07:44;;;;;;;6.87;3.50;;;3.30;99.90;;;;;;4975545;28;20548;-54
2024/01/19 11:10:12;;;;;;;5.43;3.77;;;3.50;99.90;;;;;;4992859;28;20472;-53
2024/01/19 11:12:47;;;;;;;5.80;3.70;;;3.30;99.90;;;;;;4982911;28;20469;-54
2024/01/19 11:15:20;;;;;;;7.40;3.60;;;2.70;99.90;;;;;;4991861;28;20466;-53
2024/01/19 11:17:47;;;;;;;5.57;3.40;;;2.60;99.90;;;;;;4981953;28;20496;-54
2024/01/19 11:20:14;;;;;;;3.57;3.27;;;2.20;99.90;;;;;;4983750;28;20514;-53
2024/01/19 11:22:41;;;;;;;4.63;3.37;;;2.20;99.90;;;;;;4990717;28;21006;-53
2024/01/19 11:25:13;;;;;;;4.17;3.77;;;2.30;99.90;;;;;;5001051;28;20448;-54
2024/01/19 11:27:49;;;;;;;6.30;3.20;;;2.30;99.90;;;;;;4992077;28;20448;-54
2024/01/19 11:30:24;;;;;;;4.80;3.33;;;2.60;99.90;;;;;;4989766;28;20471;-54
2024/01/19 11:32:51;;;;;;;7.23;3.50;;;3.00;99.90;;;;;;4977645;28;20504;-54
2024/01/19 11:35:41;;;;;;;12.33;4.20;;;2.70;99.90;;;;;;4989991;28;20440;-54
2024/01/19 11:38:08;;;;;;;8.60;3.80;;;3.00;99.90;;;;;;4987553;28;20500;-54
2024/01/19 11:40:47;;;;;;;5.67;3.30;;;3.20;99.90;;;;;;4985479;28;20582;-54
2024/01/19 11:43:43;;;;;;;6.43;3.50;;;3.60;99.90;;;;;;4989553;28;20503;-55
2024/01/19 11:46:10;;;;;;;8.13;3.80;;;3.40;99.90;;;;;;4984765;28;20499;-54
2024/01/19 11:48:44;;;;;;;5.63;3.70;;;3.30;99.90;;;;;;4986786;28;20464;-54
2024/01/19 11:51:31;;;;;;;6.50;3.03;;;3.30;99.90;;;;;;4982690;28;20453;-53
2024/01/19 11:53:59;;;;;;;4.40;3.60;;;3.40;99.90;;;;;;4983275;28;20475;-54
2024/01/19 11:56:26;;;;;;;8.67;3.27;;;3.10;99.90;;;;;;4994283;28;20456;-54
2024/01/19 11:58:54;;;;;;;4.63;3.13;;;2.80;99.90;;;;;;4986547;28;20560;-52
2024/01/19 12:01:21;;;;;;;6.07;3.17;;;2.90;99.90;;;;;;4991360;28;20964;-53
2024/01/19 12:03:52;;;;;;;7.00;3.30;;;2.80;99.90;;;;;;4992221;28;20492;-53
2024/01/19 12:06:19;;;;;;;3.43;2.67;;;2.70;99.90;;;;;;4989972;28;20565;-53
2024/01/19 12:09:00;;;;;;;11.97;3.50;;;2.80;99.90;;;;;;4990607;28;20543;-53
2024/01/19 12:11:26;;;;;;;7.27;3.27;;;2.90;99.90;;;;;;4984756;28;20479;-52
2024/01/19 12:13:57;;;;;;;5.60;3.30;;;3.20;99.90;;;;;;4991071;28;20659;-54
2024/01/19 12:16:24;;;;;;;3.63;3.33;;;3.20;99.90;;;;;;4986357;28;20465;-53
2024/01/19 12:18:54;;;;;;;8.87;3.23;;;3.00;99.90;;;;;;4989078;28;20491;-58
2024/01/19 12:21:21;;;;;;;8.70;3.40;;;3.30;99.90;;;;;;4990350;28;20495;-58
2024/01/19 12:23:53;;;;;;;10.07;3.67;;;3.50;99.90;;;;;;4991290;28;20466;-59
2024/01/19 12:26:21;;;;;;;15.30;3.57;;;3.10;99.90;;;;;;4993463;28;20988;-56
2024/01/19 12:28:50;;;;;;;2.93;2.73;;;3.20;99.90;;;;;;4994708;28;20536;-56
2024/01/19 12:31:25;;;;;;;4.57;2.77;;;3.00;99.90;;;;;;4990449;28;20461;-52
2024/01/19 12:33:53;;;;;;;3.53;2.93;;;2.80;99.90;;;;;;4991745;28;20461;-57
2024/01/19 12:36:24;;;;;;;6.00;3.47;;;2.70;99.90;;;;;;4988362;28;20490;-54
2024/01/19 12:39:03;;;;;;;6.97;3.03;;;2.90;99.90;;;;;;4996819;28;20457;-57
2024/01/19 12:41:30;;;;;;;5.47;3.27;;;2.80;99.90;;;;;;4990493;28;20519;-58
2024/01/19 12:43:58;;;;;;;5.50;2.83;;;3.10;99.90;;;;;;4988115;28;20475;-58
2024/01/19 12:46:26;;;;;;;5.93;3.30;;;3.20;99.90;;;;;;4989748;28;20493;-58
2024/01/19 12:49:02;;;;;;;10.07;3.23;;;3.00;99.90;;;;;;4987987;28;20465;-52
2024/01/19 12:51:29;;;;;;;9.33;3.77;;;3.20;99.90;;;;;;4990853;28;20475;-56
2024/01/19 12:53:56;;;;;;;5.47;3.43;;;3.30;99.90;;;;;;5004932;28;20541;-58